Hlavní strana
METAR-TAF:

METAR-TAF

Letiště :

Turku, Finsko

zeměpisná šířka: 60-31N, zeměpisná délka: 022-16E, výška: 49 m

Aktuální stav počasí

Zpráva byla vytvořena před 13 minutami, v 06:20 UTC
Severoseverovýchodní vítr 3 kt
Teplota -2°C
Vlhkost vzduchu 93%
Tlak 1034 hPa
Viditelnost 10 km a více

METAR: EFTU 210620Z AUTO 03003KT 9999 BKN014/// M02/M03 Q1034

Čas: 08:33 (06:33 UTC)

Předpověď počasí

Zpráva byla vytvořena před 1 hodinou a 3 minutami, v 05:30 UTC
Předpověď platná od 21 v 06 UTC do 22 v 06 UTC
Severovýchodní vítr 5 kt
Viditelnost 10 km a více
Oblačno až skoro zataženo ve výšce 1400 ft
Změna
od 21 v 06 UTC do 21 v 08 UTC
Skoro jasno ve výšce 1400 ft
Pravděpodobnost 30% :
Dočasný
od 21 v 08 UTC do 21 v 10 UTC
Oblačno až skoro zataženo ve výšce 1200 ft

TAF: EFTU 210530Z 2106/2206 05005KT 9999 BKN014 BECMG 2106/2108 FEW014 PROB30 TEMPO 2108/2110 BKN012

Stav a předpovědi počasí z více než 4 000 letišť (zprávy METAR a TAF).

Červené a žluté tečky na mapě představují dostupné meteorologické stanice.

Když kurzor umístíte na tečku, zobrazí se název stanice.

Pak kliknutím zobrazíte stav a předpověď počasí.

Chcete-li změnit mapu, kliknutím na zelené tlačítko se znaménkem +mapu přiblížíte, kliknutím na zelené tlačítko se znaménkem – mapu oddálíte a kliknutím na zelené šipky přejdete na sousední mapy.


METAR-TAF: